createdAt,value
2023-02-15T00:00:27.805Z,4.84
2023-02-15T00:01:27.769Z,4.76
2023-02-15T00:02:27.744Z,4.74
2023-02-15T00:03:27.742Z,4.94
2023-02-15T00:04:27.682Z,4.78
2023-02-15T00:05:27.667Z,4.76
2023-02-15T00:06:27.625Z,4.87
2023-02-15T00:07:27.590Z,4.83
2023-02-15T00:08:27.580Z,4.63
2023-02-15T00:09:27.529Z,4.79
2023-02-15T00:10:27.503Z,4.95
2023-02-15T00:11:27.471Z,4.89
2023-02-15T00:12:27.445Z,4.84
2023-02-15T00:13:27.418Z,4.42
2023-02-15T00:14:27.385Z,4.92
2023-02-15T00:15:27.359Z,4.89
2023-02-15T00:16:27.390Z,5.08
2023-02-15T00:17:27.296Z,4.86
2023-02-15T00:18:27.267Z,4.84
2023-02-15T00:19:27.239Z,4.78
2023-02-15T00:20:27.209Z,4.86
2023-02-15T00:21:27.193Z,4.79
2023-02-15T00:22:27.165Z,4.87
2023-02-15T00:23:27.120Z,4.95
2023-02-15T00:24:27.090Z,4.86
2023-02-15T00:25:27.058Z,4.97
2023-02-15T00:26:27.036Z,4.95
2023-02-15T00:27:26.996Z,4.94
2023-02-15T00:28:26.971Z,4.70
2023-02-15T00:29:26.940Z,4.74
2023-02-15T00:30:26.993Z,4.68
2023-02-15T00:31:26.985Z,4.92
2023-02-15T00:32:26.851Z,4.87
2023-02-15T00:33:26.820Z,4.90
2023-02-15T00:34:26.792Z,4.60
2023-02-15T00:35:26.763Z,4.42
2023-02-15T00:36:26.735Z,4.79
2023-02-15T00:37:26.722Z,4.71
2023-02-15T00:38:26.684Z,4.75
2023-02-15T00:39:26.643Z,4.66
2023-02-15T00:40:26.616Z,4.76
2023-02-15T00:41:26.585Z,4.68
2023-02-15T00:42:26.561Z,4.63
2023-02-15T00:43:26.522Z,4.53
2023-02-15T00:44:26.495Z,4.83
2023-02-15T00:45:26.463Z,4.38
2023-02-15T00:46:26.437Z,4.68
2023-02-15T00:47:26.409Z,4.18
2023-02-15T00:48:26.375Z,4.78
2023-02-15T00:49:26.345Z,4.84
2023-02-15T00:50:26.316Z,4.75
2023-02-15T00:51:26.291Z,4.64
2023-02-15T00:52:26.263Z,4.66
2023-02-15T00:53:26.247Z,4.53
2023-02-15T00:54:26.196Z,4.63
2023-02-15T00:55:26.168Z,4.63
2023-02-15T00:56:26.140Z,4.60
2023-02-15T00:57:26.110Z,4.63
2023-02-15T00:58:26.078Z,4.61
2023-02-15T00:59:26.047Z,4.79
2023-02-15T01:00:26.023Z,4.56
2023-02-15T01:01:26.020Z,4.76
2023-02-15T01:02:25.960Z,4.74
2023-02-15T01:03:25.930Z,4.83
2023-02-15T01:04:25.929Z,4.76
2023-02-15T01:05:25.871Z,4.92
2023-02-15T01:06:25.842Z,4.79
2023-02-15T01:07:25.820Z,4.87
2023-02-15T01:08:25.784Z,4.86
2023-02-15T01:09:25.784Z,4.70
2023-02-15T01:10:25.724Z,4.64
2023-02-15T01:11:25.692Z,4.58
2023-02-15T01:12:25.683Z,4.56
2023-02-15T01:13:25.635Z,4.63
2023-02-15T01:14:25.610Z,4.57
2023-02-15T01:15:25.582Z,4.52
2023-02-15T01:16:25.707Z,4.36
2023-02-15T01:17:25.522Z,4.42
2023-02-15T01:18:25.491Z,4.36
2023-02-15T01:19:25.458Z,4.22
2023-02-15T01:20:25.431Z,4.22
2023-02-15T01:21:25.397Z,4.25
2023-02-15T01:22:25.399Z,4.36
2023-02-15T01:23:25.349Z,4.28
2023-02-15T01:24:25.317Z,4.22
2023-02-15T01:25:25.304Z,4.50
2023-02-15T01:26:25.257Z,4.07
2023-02-15T01:27:25.226Z,4.60
2023-02-15T01:28:25.200Z,4.49
2023-02-15T01:29:25.167Z,4.63
2023-02-15T01:30:25.289Z,4.49
2023-02-15T01:31:25.217Z,4.67
2023-02-15T01:32:25.078Z,4.57
2023-02-15T01:33:25.045Z,4.67
2023-02-15T01:34:25.017Z,4.63
2023-02-15T01:35:24.985Z,4.57
2023-02-15T01:36:25.001Z,4.34
2023-02-15T01:37:24.928Z,-0.44
2023-02-15T01:38:24.897Z,4.61
2023-02-15T01:39:24.868Z,4.53
2023-02-15T01:40:24.842Z,4.70
2023-02-15T01:41:24.913Z,4.43
2023-02-15T01:42:24.780Z,4.46
2023-02-15T01:43:24.749Z,4.70
2023-02-15T01:44:24.719Z,4.78
2023-02-15T01:45:24.693Z,4.64
2023-02-15T01:46:24.690Z,4.71
2023-02-15T01:47:24.627Z,4.67
2023-02-15T01:48:24.603Z,4.79
2023-02-15T01:49:24.566Z,11.76
2023-02-15T01:50:24.537Z,4.86
2023-02-15T01:51:24.507Z,4.89
2023-02-15T01:52:24.479Z,4.58
2023-02-15T01:53:24.445Z,4.58
2023-02-15T01:54:24.419Z,4.46
2023-02-15T01:55:24.387Z,4.02
2023-02-15T01:56:24.356Z,4.49
2023-02-15T01:57:24.418Z,4.75
2023-02-15T01:58:24.307Z,4.57
2023-02-15T01:59:24.277Z,4.58
2023-02-15T02:00:24.242Z,4.48
2023-02-15T02:01:24.280Z,4.87
2023-02-15T02:02:24.216Z,4.71
2023-02-15T02:03:24.147Z,4.57
2023-02-15T02:04:24.146Z,4.39
2023-02-15T02:05:24.085Z,4.56
2023-02-15T02:06:25.390Z,2.50
2023-02-15T02:07:24.025Z,4.50
2023-02-15T02:08:23.998Z,4.52
2023-02-15T02:09:23.968Z,4.48
2023-02-15T02:10:23.948Z,4.49
2023-02-15T02:11:23.906Z,4.57
2023-02-15T02:12:23.881Z,4.58
2023-02-15T02:13:23.862Z,4.40
2023-02-15T02:14:23.815Z,4.50
2023-02-15T02:15:23.787Z,4.70
2023-02-15T02:16:23.887Z,4.86
2023-02-15T02:17:23.724Z,4.60
2023-02-15T02:18:23.698Z,4.49
2023-02-15T02:19:23.673Z,4.64
2023-02-15T02:20:23.637Z,4.58
2023-02-15T02:21:23.611Z,4.50
2023-02-15T02:22:23.577Z,4.40
2023-02-15T02:23:23.546Z,4.12
2023-02-15T02:24:23.515Z,4.34
2023-02-15T02:25:23.484Z,4.56
2023-02-15T02:26:23.457Z,4.36
2023-02-15T02:27:23.427Z,4.14
2023-02-15T02:28:23.400Z,4.45
2023-02-15T02:29:23.386Z,4.43
2023-02-15T02:30:23.510Z,4.63
2023-02-15T02:31:23.393Z,4.34
2023-02-15T02:32:23.286Z,4.46
2023-02-15T02:33:23.253Z,4.53
2023-02-15T02:34:23.232Z,4.38
2023-02-15T02:35:23.192Z,4.10
2023-02-15T02:36:23.160Z,3.89
2023-02-15T02:37:23.126Z,4.27
2023-02-15T02:38:23.099Z,4.34
2023-02-15T02:39:23.068Z,4.16
2023-02-15T02:40:23.041Z,4.25
2023-02-15T02:41:23.009Z,4.28
2023-02-15T02:42:22.977Z,4.31
2023-02-15T02:43:22.951Z,4.34
2023-02-15T02:44:22.919Z,4.39
2023-02-15T02:45:22.905Z,4.36
2023-02-15T02:46:22.876Z,2.64
2023-02-15T02:47:22.829Z,4.45
2023-02-15T02:48:22.799Z,4.31
2023-02-15T02:49:22.772Z,4.43
2023-02-15T02:50:22.742Z,4.38
2023-02-15T02:51:22.711Z,4.38
2023-02-15T02:52:22.677Z,4.50
2023-02-15T02:53:22.652Z,4.32
2023-02-15T02:54:22.617Z,4.20
2023-02-15T02:55:22.593Z,4.36
2023-02-15T02:56:22.562Z,4.30
2023-02-15T02:57:22.526Z,4.38
2023-02-15T02:58:22.493Z,4.12
2023-02-15T02:59:22.464Z,4.43
2023-02-15T03:00:22.437Z,4.22
2023-02-15T03:01:22.472Z,4.34
2023-02-15T03:02:22.375Z,4.22
2023-02-15T03:03:22.345Z,4.28
2023-02-15T03:04:22.315Z,0.71
2023-02-15T03:05:22.281Z,4.12
2023-02-15T03:06:22.251Z,4.24
2023-02-15T03:07:22.222Z,4.16
2023-02-15T03:08:22.194Z,4.14
2023-02-15T03:09:22.164Z,4.45
2023-02-15T03:10:22.134Z,4.27
2023-02-15T03:11:22.115Z,4.21
2023-02-15T03:12:22.076Z,4.25
2023-02-15T03:13:22.046Z,4.42
2023-02-15T03:14:22.013Z,4.52
2023-02-15T03:15:21.994Z,4.24
2023-02-15T03:16:22.047Z,4.28
2023-02-15T03:17:21.950Z,4.25
2023-02-15T03:18:21.901Z,4.12
2023-02-15T03:19:21.869Z,4.36
2023-02-15T03:20:21.840Z,4.36
2023-02-15T03:21:21.812Z,3.92
2023-02-15T03:22:21.781Z,4.30
2023-02-15T03:23:21.751Z,4.25
2023-02-15T03:24:21.722Z,4.28
2023-02-15T03:25:21.689Z,4.24
2023-02-15T03:26:21.660Z,4.30
2023-02-15T03:27:21.656Z,4.30
2023-02-15T03:28:21.603Z,4.32
2023-02-15T03:29:21.589Z,4.31
2023-02-15T03:30:21.665Z,4.25
2023-02-15T03:31:21.634Z,4.32
2023-02-15T03:32:21.526Z,4.00
2023-02-15T03:33:21.469Z,4.24
2023-02-15T03:34:21.423Z,4.04
2023-02-15T03:35:21.395Z,4.12
2023-02-15T03:36:21.368Z,4.07
2023-02-15T03:37:21.341Z,4.20
2023-02-15T03:38:21.303Z,4.00
2023-02-15T03:39:21.273Z,4.00
2023-02-15T03:40:21.241Z,4.04
2023-02-15T03:41:21.210Z,4.10
2023-02-15T03:42:21.180Z,4.07
2023-02-15T03:43:21.155Z,4.31
2023-02-15T03:44:21.140Z,4.28
2023-02-15T03:45:21.091Z,4.12
2023-02-15T03:46:21.074Z,4.14
2023-02-15T03:47:21.028Z,4.04
2023-02-15T03:48:21.004Z,3.76
2023-02-15T03:49:20.985Z,3.82
2023-02-15T03:50:20.939Z,3.94
2023-02-15T03:51:20.920Z,4.10
2023-02-15T03:52:20.880Z,4.03
2023-02-15T03:53:21.949Z,4.06
2023-02-15T03:54:20.821Z,4.13
2023-02-15T03:55:20.788Z,4.03
2023-02-15T03:56:20.763Z,4.32
2023-02-15T03:57:20.730Z,4.28
2023-02-15T03:58:20.699Z,4.13
2023-02-15T03:59:20.668Z,4.02
2023-02-15T04:00:20.640Z,4.07
2023-02-15T04:01:20.658Z,4.09
2023-02-15T04:02:20.578Z,4.24
2023-02-15T04:03:20.612Z,4.06
2023-02-15T04:04:20.522Z,4.02
2023-02-15T04:05:20.510Z,4.03
2023-02-15T04:06:20.459Z,3.73
2023-02-15T04:07:20.442Z,3.85
2023-02-15T04:08:20.409Z,3.58
2023-02-15T04:09:20.374Z,3.68
2023-02-15T04:10:20.340Z,3.76
2023-02-15T04:11:20.309Z,3.49
2023-02-15T04:12:20.281Z,3.56
2023-02-15T04:13:20.249Z,3.56
2023-02-15T04:14:20.228Z,3.67
2023-02-15T04:15:20.192Z,3.48
2023-02-15T04:16:20.211Z,3.67
2023-02-15T04:17:20.129Z,3.84
2023-02-15T04:18:20.100Z,3.92
2023-02-15T04:19:20.066Z,4.00
2023-02-15T04:20:20.034Z,4.78
2023-02-15T04:21:20.026Z,4.02
2023-02-15T04:22:19.974Z,3.95
2023-02-15T04:23:19.943Z,4.10
2023-02-15T04:24:19.915Z,3.86
2023-02-15T04:25:19.884Z,4.10
2023-02-15T04:26:19.851Z,3.94
2023-02-15T04:27:19.825Z,3.81
2023-02-15T04:28:19.799Z,3.84
2023-02-15T04:29:19.764Z,3.68
2023-02-15T04:30:19.810Z,3.95
2023-02-15T04:31:19.827Z,3.56
2023-02-15T04:32:19.710Z,3.99
2023-02-15T04:33:19.639Z,3.63
2023-02-15T04:34:19.617Z,3.91
2023-02-15T04:35:19.581Z,4.07
2023-02-15T04:36:19.547Z,4.02
2023-02-15T04:37:19.538Z,4.00
2023-02-15T04:38:19.492Z,3.86
2023-02-15T04:39:19.460Z,3.94
2023-02-15T04:40:19.883Z,3.82
2023-02-15T04:41:19.397Z,3.96
2023-02-15T04:42:19.365Z,3.91
2023-02-15T04:43:19.336Z,3.86
2023-02-15T04:44:19.308Z,3.85
2023-02-15T04:45:19.280Z,3.88
2023-02-15T04:46:19.348Z,3.61
2023-02-15T04:47:19.212Z,3.91
2023-02-15T04:48:19.188Z,4.00
2023-02-15T04:49:19.154Z,3.85
2023-02-15T04:50:19.121Z,4.00
2023-02-15T04:51:19.094Z,4.04
2023-02-15T04:52:19.061Z,5.51
2023-02-15T04:53:19.052Z,3.49
2023-02-15T04:54:19.000Z,3.95
2023-02-15T04:55:18.971Z,3.81
2023-02-15T04:56:18.940Z,3.76
2023-02-15T04:57:18.911Z,4.03
2023-02-15T04:58:18.878Z,3.78
2023-02-15T04:59:18.851Z,3.95
2023-02-15T05:00:18.819Z,3.68
2023-02-15T05:01:18.847Z,3.77
2023-02-15T05:02:18.756Z,3.70
2023-02-15T05:03:19.760Z,3.64
2023-02-15T05:04:18.747Z,3.88
2023-02-15T05:05:18.667Z,3.71
2023-02-15T05:06:18.637Z,3.84
2023-02-15T05:07:18.620Z,3.86
2023-02-15T05:08:18.576Z,3.81
2023-02-15T05:09:18.579Z,3.63
2023-02-15T05:10:18.526Z,3.58
2023-02-15T05:11:18.492Z,3.63
2023-02-15T05:12:18.466Z,3.74
2023-02-15T05:13:18.427Z,3.43
2023-02-15T05:14:18.394Z,3.59
2023-02-15T05:15:18.362Z,3.59
2023-02-15T05:16:18.354Z,3.61
2023-02-15T05:17:18.304Z,3.63
2023-02-15T05:18:18.270Z,3.66
2023-02-15T05:19:18.253Z,3.58
2023-02-15T05:20:18.211Z,3.46
2023-02-15T05:21:18.183Z,3.52
2023-02-15T05:22:18.147Z,3.26
2023-02-15T05:23:18.119Z,2.93
2023-02-15T05:24:18.088Z,3.53
2023-02-15T05:25:18.080Z,3.43
2023-02-15T05:26:18.032Z,3.50
2023-02-15T05:27:18.003Z,3.52
2023-02-15T05:28:17.978Z,3.49
2023-02-15T05:29:17.941Z,3.34
2023-02-15T05:30:18.062Z,3.43
2023-02-15T05:31:18.303Z,3.41
2023-02-15T05:32:17.955Z,3.36
2023-02-15T05:33:17.820Z,3.26
2023-02-15T05:34:17.795Z,3.33
2023-02-15T05:35:17.762Z,3.27
2023-02-15T05:36:17.729Z,3.61
2023-02-15T05:37:17.702Z,3.61
2023-02-15T05:38:17.670Z,3.70
2023-02-15T05:39:17.640Z,3.81
2023-02-15T05:40:17.609Z,3.89
2023-02-15T05:41:17.603Z,3.85
2023-02-15T05:42:17.553Z,3.66
2023-02-15T05:43:17.525Z,3.66
2023-02-15T05:44:17.519Z,3.55
2023-02-15T05:45:17.459Z,3.43
2023-02-15T05:46:17.454Z,3.56
2023-02-15T05:47:17.401Z,3.50
2023-02-15T05:48:17.367Z,3.45
2023-02-15T05:49:17.341Z,3.37
2023-02-15T05:50:17.307Z,3.22
2023-02-15T05:51:17.283Z,3.45
2023-02-15T05:52:17.248Z,3.13
2023-02-15T05:53:17.220Z,3.21
2023-02-15T05:54:17.186Z,3.03
2023-02-15T05:55:17.159Z,3.37
2023-02-15T05:56:17.131Z,3.12
2023-02-15T05:57:17.116Z,3.11
2023-02-15T05:58:17.071Z,3.11
2023-02-15T05:59:17.039Z,3.29
2023-02-15T06:00:17.014Z,3.06
2023-02-15T06:01:16.978Z,3.19
2023-02-15T06:02:16.990Z,3.36
2023-02-15T06:03:16.956Z,3.53
2023-02-15T06:04:16.883Z,3.45
2023-02-15T06:05:16.868Z,3.21
2023-02-15T06:06:16.829Z,3.26
2023-02-15T06:07:16.800Z,3.37
2023-02-15T06:08:16.767Z,3.27
2023-02-15T06:09:16.736Z,3.03
2023-02-15T06:10:16.702Z,3.33
2023-02-15T06:11:16.675Z,2.97
2023-02-15T06:12:16.640Z,3.29
2023-02-15T06:13:16.638Z,3.27
2023-02-15T06:14:16.583Z,3.11
2023-02-15T06:15:16.562Z,2.97
2023-02-15T06:16:16.591Z,3.06
2023-02-15T06:17:16.575Z,3.30
2023-02-15T06:18:16.470Z,3.09
2023-02-15T06:19:16.434Z,3.05
2023-02-15T06:20:16.399Z,3.00
2023-02-15T06:21:16.374Z,3.15
2023-02-15T06:22:16.341Z,3.27
2023-02-15T06:23:16.381Z,3.31
2023-02-15T06:24:16.280Z,3.41
2023-02-15T06:25:16.251Z,3.33
2023-02-15T06:26:16.220Z,3.22
2023-02-15T06:27:16.192Z,3.16
2023-02-15T06:28:16.158Z,3.15
2023-02-15T06:29:16.146Z,3.06
2023-02-15T06:30:16.146Z,2.98
2023-02-15T06:31:16.194Z,2.93
2023-02-15T06:32:16.034Z,3.05
2023-02-15T06:33:16.005Z,3.19
2023-02-15T06:34:15.977Z,3.52
2023-02-15T06:35:15.945Z,7.95
2023-02-15T06:36:15.913Z,3.66
2023-02-15T06:37:15.888Z,3.40
2023-02-15T06:38:15.855Z,3.41
2023-02-15T06:39:15.823Z,3.22
2023-02-15T06:40:15.804Z,3.61
2023-02-15T06:41:15.759Z,3.61
2023-02-15T06:42:15.735Z,3.56
2023-02-15T06:43:15.706Z,3.43
2023-02-15T06:44:15.669Z,3.64
2023-02-15T06:45:15.717Z,3.53
2023-02-15T06:46:15.670Z,3.67
2023-02-15T06:47:15.578Z,3.56
2023-02-15T06:48:15.555Z,3.59
2023-02-15T06:49:15.517Z,3.64
2023-02-15T06:50:15.494Z,3.67
2023-02-15T06:51:15.457Z,3.53
2023-02-15T06:52:15.422Z,3.49
2023-02-15T06:53:15.398Z,3.59
2023-02-15T06:54:15.362Z,3.58
2023-02-15T06:55:15.339Z,3.49
2023-02-15T06:56:15.303Z,3.55
2023-02-15T06:57:15.271Z,3.59
2023-02-15T06:58:15.249Z,3.74
2023-02-15T06:59:15.212Z,3.58
2023-02-15T07:00:15.202Z,3.43
2023-02-15T07:01:15.225Z,3.52
2023-02-15T07:02:15.123Z,2.85
2023-02-15T07:03:15.088Z,3.40
2023-02-15T07:04:15.060Z,3.13
2023-02-15T07:05:15.102Z,3.22
2023-02-15T07:06:14.994Z,3.31
2023-02-15T07:07:15.062Z,3.61
2023-02-15T07:08:14.934Z,3.24
2023-02-15T07:09:14.904Z,3.30
2023-02-15T07:10:14.879Z,3.15
2023-02-15T07:11:14.842Z,2.98
2023-02-15T07:12:14.808Z,3.29
2023-02-15T07:13:14.782Z,3.08
2023-02-15T07:14:14.750Z,3.27
2023-02-15T07:15:14.729Z,3.18
2023-02-15T07:16:14.705Z,3.43
2023-02-15T07:17:33.031Z,3.12
2023-02-15T07:18:14.624Z,3.01
2023-02-15T07:19:14.604Z,2.88
2023-02-15T07:20:14.680Z,2.77
2023-02-15T07:21:14.557Z,2.79
2023-02-15T07:22:14.503Z,2.77
2023-02-15T07:23:14.476Z,2.93
2023-02-15T07:24:14.442Z,3.08
2023-02-15T07:25:14.433Z,2.90
2023-02-15T07:26:14.379Z,2.85
2023-02-15T07:27:14.365Z,2.94
2023-02-15T07:28:14.320Z,2.90
2023-02-15T07:29:14.289Z,2.80
2023-02-15T07:30:14.352Z,2.93
2023-02-15T07:31:14.261Z,2.91
2023-02-15T07:32:14.235Z,2.98
2023-02-15T07:33:14.188Z,2.68
2023-02-15T07:34:14.138Z,3.16
2023-02-15T07:35:14.105Z,2.83
2023-02-15T07:36:14.155Z,2.94
2023-02-15T07:37:14.045Z,3.01
2023-02-15T07:38:14.014Z,3.09
2023-02-15T07:39:14.004Z,3.05
2023-02-15T07:40:13.978Z,2.91
2023-02-15T07:41:13.925Z,2.88
2023-02-15T07:42:13.892Z,3.00
2023-02-15T07:43:13.870Z,3.03
2023-02-15T07:44:13.831Z,2.97
2023-02-15T07:45:13.806Z,2.90
2023-02-15T07:46:13.791Z,3.06
2023-02-15T07:47:13.740Z,2.91
2023-02-15T07:48:13.714Z,3.06
2023-02-15T07:49:13.701Z,2.87
2023-02-15T07:50:13.747Z,-10.96
2023-02-15T07:51:13.676Z,2.80
2023-02-15T07:52:13.591Z,4.71
2023-02-15T07:53:13.558Z,3.01
2023-02-15T07:54:13.529Z,3.00
2023-02-15T07:55:13.503Z,3.22
2023-02-15T07:56:13.482Z,2.97
2023-02-15T07:57:13.436Z,2.91
2023-02-15T07:58:13.407Z,3.22
2023-02-15T07:59:13.377Z,3.09
2023-02-15T08:00:13.364Z,3.41
2023-02-15T08:01:13.315Z,3.12
2023-02-15T08:02:13.288Z,3.27
2023-02-15T08:03:13.480Z,3.18
2023-02-15T08:04:13.235Z,3.26
2023-02-15T08:05:13.212Z,3.24
2023-02-15T08:06:13.162Z,3.11
2023-02-15T08:07:13.133Z,3.45
2023-02-15T08:08:13.102Z,3.41
2023-02-15T08:09:13.077Z,3.46
2023-02-15T08:10:13.045Z,3.16
2023-02-15T08:11:13.011Z,3.45
2023-02-15T08:12:12.980Z,3.41
2023-02-15T08:13:12.961Z,3.53
2023-02-15T08:14:12.917Z,3.63
2023-02-15T08:15:12.891Z,3.61
2023-02-15T08:16:14.388Z,-0.09
2023-02-15T08:17:12.835Z,3.61
2023-02-15T08:18:12.804Z,3.78
2023-02-15T08:19:12.777Z,3.64
2023-02-15T08:20:12.737Z,3.61
2023-02-15T08:21:12.807Z,3.81
2023-02-15T08:22:12.765Z,3.77
2023-02-15T08:23:12.653Z,3.91
2023-02-15T08:24:12.627Z,3.73
2023-02-15T08:25:12.594Z,3.76
2023-02-15T08:26:12.559Z,4.00
2023-02-15T08:27:12.536Z,3.88
2023-02-15T08:28:12.497Z,4.06
2023-02-15T08:29:12.470Z,4.03
2023-02-15T08:30:12.482Z,4.00
2023-02-15T08:31:12.473Z,3.86
2023-02-15T08:32:12.432Z,4.07
2023-02-15T08:33:12.348Z,4.10
2023-02-15T08:34:12.316Z,3.78
2023-02-15T08:35:12.288Z,4.16
2023-02-15T08:36:12.261Z,3.92
2023-02-15T08:37:12.247Z,4.24
2023-02-15T08:38:12.207Z,4.42
2023-02-15T08:39:12.169Z,4.18
2023-02-15T08:40:12.142Z,4.28
2023-02-15T08:41:12.107Z,4.28
2023-02-15T08:42:12.084Z,4.27
2023-02-15T08:43:12.063Z,4.22
2023-02-15T08:44:12.032Z,4.04
2023-02-15T08:45:11.984Z,4.22
2023-02-15T08:46:12.072Z,4.18
2023-02-15T08:47:11.940Z,4.32
2023-02-15T08:48:11.894Z,4.28
2023-02-15T08:49:11.862Z,4.36
2023-02-15T08:50:11.950Z,4.48
2023-02-15T08:51:11.829Z,4.46
2023-02-15T08:52:11.787Z,4.43
2023-02-15T08:53:11.763Z,4.66
2023-02-15T08:54:11.712Z,4.53
2023-02-15T08:55:11.685Z,4.68
2023-02-15T08:56:11.664Z,4.61
2023-02-15T08:57:11.666Z,4.76
2023-02-15T08:58:11.598Z,4.87
2023-02-15T08:59:11.561Z,4.84
2023-02-15T09:00:11.536Z,4.76
2023-02-15T09:01:11.553Z,4.94
2023-02-15T09:02:11.549Z,4.74
2023-02-15T09:03:11.442Z,4.95
2023-02-15T09:04:11.418Z,5.18
2023-02-15T09:05:11.382Z,5.16
2023-02-15T09:06:11.352Z,5.16
2023-02-15T09:07:11.369Z,5.10
2023-02-15T09:08:11.294Z,5.18
2023-02-15T09:09:11.325Z,5.18
2023-02-15T09:10:11.231Z,5.22
2023-02-15T09:11:11.201Z,5.41
2023-02-15T09:12:11.174Z,5.38
2023-02-15T09:13:11.140Z,5.31
2023-02-15T09:14:11.121Z,5.46
2023-02-15T09:15:11.087Z,5.47
2023-02-15T09:16:11.054Z,5.51
2023-02-15T09:17:11.020Z,5.51
2023-02-15T09:18:10.994Z,5.55
2023-02-15T09:19:10.961Z,5.56
2023-02-15T09:20:10.931Z,5.47
2023-02-15T09:21:10.904Z,5.58
2023-02-15T09:22:10.875Z,5.62
2023-02-15T09:23:21.903Z,5.59
2023-02-15T09:24:10.815Z,5.67
2023-02-15T09:25:10.798Z,5.67
2023-02-15T09:26:10.759Z,5.46
2023-02-15T09:27:10.729Z,5.54
2023-02-15T09:28:11.878Z,5.59
2023-02-15T09:29:10.672Z,5.72
2023-02-15T09:30:10.726Z,5.65
2023-02-15T09:31:10.686Z,5.67
2023-02-15T09:32:10.652Z,5.79
2023-02-15T09:33:10.543Z,5.79
2023-02-15T09:34:10.524Z,5.88
2023-02-15T09:35:10.487Z,5.94
2023-02-15T09:36:10.459Z,6.12
2023-02-15T09:37:10.452Z,6.35
2023-02-15T09:38:10.444Z,6.43
2023-02-15T09:39:10.403Z,6.41
2023-02-15T09:40:10.446Z,6.54
2023-02-15T09:41:10.366Z,6.53
2023-02-15T09:42:10.283Z,6.62
2023-02-15T09:43:10.250Z,6.56
2023-02-15T09:44:10.236Z,6.64
2023-02-15T09:45:10.195Z,6.77
2023-02-15T09:46:10.307Z,6.72
2023-02-15T09:47:10.135Z,6.74
2023-02-15T09:48:10.108Z,6.95
2023-02-15T09:49:10.074Z,6.83
2023-02-15T09:50:10.120Z,6.93
2023-02-15T09:51:10.016Z,7.15
2023-02-15T09:52:09.997Z,7.04
2023-02-15T09:53:10.038Z,7.18
2023-02-15T09:54:09.937Z,6.96
2023-02-15T09:55:09.906Z,7.36
2023-02-15T09:56:09.877Z,7.53
2023-02-15T09:57:09.870Z,7.51
2023-02-15T09:58:09.826Z,7.50
2023-02-15T09:59:09.823Z,7.36
2023-02-15T10:00:09.763Z,7.62
2023-02-15T10:01:09.791Z,7.77
2023-02-15T10:02:09.774Z,8.03
2023-02-15T10:03:09.679Z,7.84
2023-02-15T10:04:09.705Z,7.62
2023-02-15T10:05:09.618Z,8.26
2023-02-15T10:06:09.593Z,5.46
2023-02-15T10:07:09.562Z,8.49
2023-02-15T10:08:09.543Z,8.63
2023-02-15T10:09:09.509Z,9.08
2023-02-15T10:10:09.479Z,9.16
2023-02-15T10:11:09.463Z,9.49
2023-02-15T10:12:09.537Z,9.76
2023-02-15T10:13:09.413Z,9.84
2023-02-15T10:14:09.375Z,10.05
2023-02-15T10:15:09.341Z,10.15
2023-02-15T10:16:09.313Z,10.28
2023-02-15T10:17:09.295Z,10.71
2023-02-15T10:18:09.298Z,10.79
2023-02-15T10:19:09.271Z,11.04
2023-02-15T10:20:09.307Z,11.04
2023-02-15T10:21:09.178Z,11.38
2023-02-15T10:22:09.151Z,11.30
2023-02-15T10:23:09.137Z,11.34
2023-02-15T10:24:09.099Z,11.58
2023-02-15T10:25:09.070Z,11.70
2023-02-15T10:26:09.042Z,11.91
2023-02-15T10:27:09.023Z,11.99
2023-02-15T10:28:08.991Z,12.25
2023-02-15T10:29:08.986Z,12.28
2023-02-15T10:30:08.988Z,12.44
2023-02-15T10:31:09.089Z,12.37
2023-02-15T10:32:09.092Z,12.33
2023-02-15T10:33:08.863Z,12.40
2023-02-15T10:34:08.833Z,12.53
2023-02-15T10:35:08.807Z,12.61
2023-02-15T10:36:08.785Z,12.69
2023-02-15T10:37:08.779Z,12.54
2023-02-15T10:38:08.728Z,12.83
2023-02-15T10:39:08.702Z,12.95
2023-02-15T10:40:08.691Z,12.98
2023-02-15T10:41:08.649Z,13.09
2023-02-15T10:42:08.627Z,13.12
2023-02-15T10:43:08.600Z,13.45
2023-02-15T10:44:08.621Z,13.20
2023-02-15T10:45:08.570Z,13.46
2023-02-15T10:46:08.609Z,13.37
2023-02-15T10:47:10.601Z,13.49
2023-02-15T10:48:08.488Z,13.47
2023-02-15T10:49:08.454Z,13.57
2023-02-15T10:50:08.513Z,13.52
2023-02-15T10:51:08.403Z,13.50
2023-02-15T10:52:08.375Z,13.67
2023-02-15T10:53:08.350Z,13.82
2023-02-15T10:54:08.326Z,13.71
2023-02-15T10:55:08.308Z,13.71
2023-02-15T10:56:08.282Z,13.70
2023-02-15T10:57:08.272Z,13.89
2023-02-15T10:58:08.230Z,13.78
2023-02-15T10:59:08.319Z,13.78
2023-02-15T11:00:08.182Z,13.60
2023-02-15T11:01:08.226Z,13.80
2023-02-15T11:02:08.211Z,13.73
2023-02-15T11:03:08.156Z,13.57
2023-02-15T11:04:08.091Z,13.52
2023-02-15T11:05:08.088Z,13.36
2023-02-15T11:06:08.043Z,13.31
2023-02-15T11:07:08.025Z,13.42
2023-02-15T11:08:07.991Z,13.27
2023-02-15T11:09:08.024Z,13.24
2023-02-15T11:10:07.941Z,13.39
2023-02-15T11:11:07.914Z,13.49
2023-02-15T11:12:07.894Z,13.54
2023-02-15T11:13:07.881Z,13.60
2023-02-15T11:14:07.855Z,13.79
2023-02-15T11:15:07.826Z,13.71
2023-02-15T11:16:07.823Z,13.67
2023-02-15T11:17:07.807Z,13.60
2023-02-15T11:18:07.753Z,13.55
2023-02-15T11:19:07.736Z,13.55
2023-02-15T11:20:07.707Z,13.47
2023-02-15T11:21:07.905Z,13.17
2023-02-15T11:22:07.749Z,13.36
2023-02-15T11:23:07.643Z,13.20
2023-02-15T11:24:07.699Z,13.21
2023-02-15T11:25:07.697Z,13.11
2023-02-15T11:26:07.571Z,12.90
2023-02-15T11:27:07.680Z,12.87
2023-02-15T11:28:07.519Z,12.63
2023-02-15T11:29:07.492Z,12.47
2023-02-15T11:30:07.510Z,12.57
2023-02-15T11:31:07.580Z,12.51
2023-02-15T11:32:07.579Z,12.36
2023-02-15T11:33:07.443Z,12.28
2023-02-15T11:34:07.378Z,12.25
2023-02-15T11:35:07.357Z,12.23
2023-02-15T11:36:07.335Z,12.36
2023-02-15T11:37:07.302Z,12.20
2023-02-15T11:38:07.280Z,12.12
2023-02-15T11:39:07.257Z,12.32
2023-02-15T11:40:07.234Z,12.18
2023-02-15T11:41:07.212Z,12.05
2023-02-15T11:42:07.184Z,12.17
2023-02-15T11:43:07.157Z,12.14
2023-02-15T11:44:07.145Z,12.08
2023-02-15T11:45:07.108Z,12.18
2023-02-15T11:46:07.127Z,12.25
2023-02-15T11:47:07.059Z,12.15
2023-02-15T11:48:07.039Z,12.10
2023-02-15T11:49:07.036Z,12.11
2023-02-15T11:50:06.998Z,12.07
2023-02-15T11:51:06.963Z,12.10
2023-02-15T11:52:06.966Z,12.15
2023-02-15T11:53:06.920Z,11.99
2023-02-15T11:54:06.914Z,12.10
2023-02-15T11:55:06.868Z,12.28
2023-02-15T11:56:06.843Z,12.08
2023-02-15T11:57:06.818Z,12.30
2023-02-15T11:58:06.796Z,12.15
2023-02-15T11:59:06.769Z,12.11
2023-02-15T12:00:06.748Z,12.23
2023-02-15T12:01:06.724Z,12.14
2023-02-15T12:02:06.698Z,12.11
2023-02-15T12:03:06.771Z,12.08
2023-02-15T12:04:06.699Z,12.28
2023-02-15T12:05:06.649Z,12.18
2023-02-15T12:06:06.615Z,12.18
2023-02-15T12:07:06.575Z,12.17
2023-02-15T12:08:06.549Z,12.28
2023-02-15T12:09:06.526Z,12.35
2023-02-15T12:10:06.502Z,12.35
2023-02-15T12:11:06.475Z,12.30
2023-02-15T12:12:06.450Z,12.35
2023-02-15T12:13:06.440Z,12.43
2023-02-15T12:14:06.421Z,12.47
2023-02-15T12:15:06.380Z,12.44
2023-02-15T12:16:06.430Z,12.44
2023-02-15T12:17:06.326Z,12.53
2023-02-15T12:18:06.303Z,12.50
2023-02-15T12:19:06.283Z,12.48
2023-02-15T12:20:06.259Z,12.58
2023-02-15T12:21:06.250Z,12.63
2023-02-15T12:22:07.570Z,12.61
2023-02-15T12:23:06.180Z,12.55
2023-02-15T12:24:06.156Z,12.57
2023-02-15T12:25:06.129Z,12.61
2023-02-15T12:26:06.107Z,12.53
2023-02-15T12:27:06.144Z,12.70
2023-02-15T12:28:06.057Z,12.78
2023-02-15T12:29:06.035Z,12.66
2023-02-15T12:30:06.047Z,12.61
2023-02-15T12:31:06.261Z,12.78
2023-02-15T12:32:06.076Z,12.78
2023-02-15T12:33:05.942Z,12.63
2023-02-15T12:34:05.914Z,12.84
2023-02-15T12:35:05.885Z,12.88
2023-02-15T12:36:05.864Z,12.70
2023-02-15T12:37:05.856Z,12.76
2023-02-15T12:38:05.824Z,12.68
2023-02-15T12:39:05.783Z,12.63
2023-02-15T12:40:05.760Z,12.83
2023-02-15T12:41:05.734Z,12.72
2023-02-15T12:42:05.711Z,12.69
2023-02-15T12:43:08.915Z,12.76
2023-02-15T12:44:05.674Z,12.66
2023-02-15T12:45:05.668Z,12.87
2023-02-15T12:46:05.737Z,12.81
2023-02-15T12:47:05.665Z,12.90
2023-02-15T12:48:05.564Z,12.68
2023-02-15T12:49:05.549Z,12.88
2023-02-15T12:50:05.605Z,12.65
2023-02-15T12:51:05.489Z,12.72
2023-02-15T12:52:05.464Z,12.63
2023-02-15T12:53:05.461Z,12.72
2023-02-15T12:54:05.421Z,12.75
2023-02-15T12:55:05.391Z,12.73
2023-02-15T12:56:05.366Z,12.87
2023-02-15T12:57:05.342Z,12.88
2023-02-15T12:58:05.321Z,12.88
2023-02-15T12:59:05.294Z,12.83
2023-02-15T13:00:05.271Z,12.91
2023-02-15T13:01:05.429Z,12.86
2023-02-15T13:02:05.222Z,12.87
2023-02-15T13:03:05.196Z,12.93
2023-02-15T13:04:05.177Z,12.70
2023-02-15T13:05:05.212Z,12.88
2023-02-15T13:06:05.121Z,12.86
2023-02-15T13:07:05.102Z,12.87
2023-02-15T13:08:05.075Z,12.91
2023-02-15T13:09:05.100Z,12.98
2023-02-15T13:10:05.026Z,12.99
2023-02-15T13:11:05.122Z,13.02
2023-02-15T13:12:04.978Z,12.99